Time;durP1;ratioP1;P1;durP2;ratioP2;P2;SDS_P1;SDS_P2;PMS_P1;PMS_P2;Temp;Humidity;BMP_temperature;BMP_pressure;BME280_temperature;BME280_humidity;BME280_pressure;Samples;Min_cycle;Max_cycle;Signal;HPM_P1;HPM_P2
2021/07/18 00:00:22;;;;;;;31.80;17.27;;;17.50;99.90;;;;;;5013474;28;20249;-57
2021/07/18 00:02:48;;;;;;;23.30;16.30;;;17.50;99.90;;;;;;5026699;28;20221;-57
2021/07/18 00:05:14;;;;;;;23.77;15.70;;;17.50;99.90;;;;;;5024842;28;20443;-58
2021/07/18 00:07:39;;;;;;;22.40;16.77;;;17.40;99.90;;;;;;5026580;28;20179;-56
2021/07/18 00:10:08;;;;;;;33.20;16.23;;;17.40;99.90;;;;;;5026344;28;20278;-57
2021/07/18 00:12:34;;;;;;;28.93;16.67;;;17.40;99.90;;;;;;5044277;28;20276;-59
2021/07/18 00:15:02;;;;;;;26.33;16.13;;;17.40;99.90;;;;;;5025308;28;20977;-58
2021/07/18 00:17:27;;;;;;;28.43;17.40;;;17.40;99.90;;;;;;5026503;28;20253;-56
2021/07/18 00:19:53;;;;;;;29.77;16.67;;;17.40;99.90;;;;;;5041829;28;20493;-57
2021/07/18 00:22:19;;;;;;;31.47;15.80;;;17.30;99.90;;;;;;5041978;28;20175;-57
2021/07/18 00:24:53;;;;;;;26.50;15.77;;;17.30;99.90;;;;;;5028280;28;20664;-58
2021/07/18 00:27:21;;;;;;;23.43;15.20;;;17.30;99.90;;;;;;5054482;28;20191;-56
2021/07/18 00:29:50;;;;;;;24.80;14.70;;;17.30;99.90;;;;;;5029243;28;20580;-58
2021/07/18 00:32:16;;;;;;;27.17;15.83;;;17.30;99.90;;;;;;5024917;28;20452;-56
2021/07/18 00:34:44;;;;;;;26.70;16.90;;;17.30;99.90;;;;;;5040865;28;20434;-56
2021/07/18 00:37:10;;;;;;;22.50;16.27;;;17.20;99.90;;;;;;5026612;28;20571;-56
2021/07/18 00:39:35;;;;;;;21.63;15.37;;;17.20;99.90;;;;;;5021420;28;20454;-57
2021/07/18 00:42:02;;;;;;;30.13;16.90;;;17.20;99.90;;;;;;5026137;28;20266;-61
2021/07/18 00:44:27;;;;;;;28.77;17.37;;;17.20;99.90;;;;;;5025810;28;20179;-57
2021/07/18 00:47:02;;;;;;;28.93;16.87;;;17.20;99.90;;;;;;5025222;28;20460;-57
2021/07/18 00:49:28;;;;;;;24.33;16.70;;;17.20;99.90;;;;;;5020930;28;20175;-57
2021/07/18 00:52:14;;;;;;;28.63;16.03;;;17.10;99.90;;;;;;5025148;28;20430;-59
2021/07/18 00:54:39;;;;;;;25.50;16.43;;;17.20;99.90;;;;;;5039735;28;20359;-57
2021/07/18 00:57:08;;;;;;;36.00;15.33;;;17.10;99.90;;;;;;5025359;28;20433;-58
2021/07/18 00:59:37;;;;;;;24.20;16.60;;;17.10;99.90;;;;;;5041210;28;20287;-56
2021/07/18 01:02:04;;;;;;;25.13;15.90;;;17.20;99.90;;;;;;5025846;28;20429;-60
2021/07/18 01:04:33;;;;;;;22.93;15.60;;;17.10;99.90;;;;;;5040027;28;20433;-57
2021/07/18 01:06:58;;;;;;;34.27;16.30;;;17.10;99.90;;;;;;5038122;28;20592;-57
2021/07/18 01:09:27;;;;;;;25.93;15.70;;;17.10;99.90;;;;;;5041333;28;20457;-58
2021/07/18 01:11:53;;;;;;;24.17;14.80;;;17.00;99.90;;;;;;5024917;28;20183;-57
2021/07/18 01:14:19;;;;;;;23.83;15.23;;;17.00;99.90;;;;;;5025930;28;20457;-56
2021/07/18 01:16:45;;;;;;;32.33;16.17;;;17.00;99.90;;;;;;5024530;28;20429;-57
2021/07/18 01:19:12;;;;;;;23.00;14.10;;;17.00;99.90;;;;;;5024320;28;20442;-57
2021/07/18 01:21:42;;;;;;;24.17;15.13;;;17.00;99.90;;;;;;5040664;28;20506;-56
2021/07/18 01:24:13;;;;;;;28.30;14.20;;;17.00;99.90;;;;;;5023262;28;20517;-57
2021/07/18 01:26:39;;;;;;;21.93;14.07;;;17.00;99.90;;;;;;5008445;28;21034;-58
2021/07/18 01:29:10;;;;;;;21.10;14.50;;;16.90;99.90;;;;;;5025366;28;20426;-59
2021/07/18 01:31:39;;;;;;;22.60;14.17;;;16.90;99.90;;;;;;5039004;28;20202;-56
2021/07/18 01:34:08;;;;;;;25.43;14.20;;;16.90;99.90;;;;;;5024434;28;20495;-56
2021/07/18 01:36:35;;;;;;;22.80;13.37;;;16.80;99.90;;;;;;5023895;28;21017;-56
2021/07/18 01:39:07;;;;;;;19.77;13.43;;;16.70;99.90;;;;;;5024193;28;20430;-57
2021/07/18 01:41:34;;;;;;;23.90;13.40;;;16.80;99.90;;;;;;5023659;28;20461;-57
2021/07/18 01:44:00;;;;;;;19.10;12.70;;;16.70;99.90;;;;;;5044913;28;20438;-57
2021/07/18 01:46:30;;;;;;;28.57;13.23;;;16.70;99.90;;;;;;5025308;28;20488;-56
2021/07/18 01:49:00;;;;;;;21.53;15.07;;;16.70;99.90;;;;;;5024764;28;20942;-57
2021/07/18 01:51:27;;;;;;;18.77;12.37;;;16.60;99.90;;;;;;5023794;28;21052;-56
2021/07/18 01:53:59;;;;;;;20.63;11.93;;;16.60;99.90;;;;;;5023272;28;20746;-56
2021/07/18 01:56:26;;;;;;;22.27;12.87;;;16.60;99.90;;;;;;5026059;28;20441;-56
2021/07/18 01:58:56;;;;;;;25.07;13.60;;;16.60;99.90;;;;;;5040228;28;20433;-55
2021/07/18 02:01:27;;;;;;;25.83;13.57;;;16.60;99.90;;;;;;5025122;28;20450;-58
2021/07/18 02:03:54;;;;;;;23.13;13.37;;;16.60;99.90;;;;;;5043993;28;20456;-56
2021/07/18 02:06:22;;;;;;;19.33;13.50;;;16.60;99.90;;;;;;5026141;28;20471;-56
2021/07/18 02:08:52;;;;;;;22.20;13.57;;;16.60;99.90;;;;;;5042124;28;20491;-57
2021/07/18 02:11:18;;;;;;;16.67;12.13;;;16.60;99.90;;;;;;5040038;28;20462;-56
2021/07/18 02:13:49;;;;;;;23.10;14.10;;;16.60;99.90;;;;;;5024444;28;20442;-57
2021/07/18 02:16:15;;;;;;;24.03;13.77;;;16.70;99.90;;;;;;5039432;28;20437;-57
2021/07/18 02:18:41;;;;;;;24.90;14.20;;;16.60;99.90;;;;;;5039690;28;20460;-57
2021/07/18 02:21:07;;;;;;;23.87;13.50;;;16.70;99.90;;;;;;5038859;28;20227;-57
2021/07/18 02:23:33;;;;;;;24.73;12.57;;;16.60;99.90;;;;;;5040425;28;20453;-58
2021/07/18 02:25:58;;;;;;;23.83;13.23;;;16.60;99.90;;;;;;5040159;28;20195;-58
2021/07/18 02:28:24;;;;;;;24.67;14.37;;;16.60;99.90;;;;;;5037605;28;20575;-59
2021/07/18 02:30:50;;;;;;;18.73;12.30;;;16.50;99.90;;;;;;5036658;28;20249;-56
2021/07/18 02:33:18;;;;;;;20.33;13.10;;;16.50;99.90;;;;;;5038806;28;20175;-57
2021/07/18 02:35:44;;;;;;;23.90;13.13;;;16.50;99.90;;;;;;5039446;28;20210;-57
2021/07/18 02:38:12;;;;;;;25.20;11.20;;;16.40;99.90;;;;;;5043478;28;20449;-58
2021/07/18 02:40:38;;;;;;;17.37;11.90;;;16.40;99.90;;;;;;5036149;28;20202;-58
2021/07/18 02:43:03;;;;;;;19.30;12.80;;;16.30;99.90;;;;;;5019936;28;21112;-58
2021/07/18 02:45:32;;;;;;;16.57;10.40;;;16.30;99.90;;;;;;5024466;28;20188;-57
2021/07/18 02:47:59;;;;;;;17.27;10.33;;;16.30;99.90;;;;;;5025798;28;20401;-57
2021/07/18 02:50:27;;;;;;;22.33;11.77;;;16.20;99.90;;;;;;5040265;28;20511;-58
2021/07/18 02:52:53;;;;;;;18.03;11.10;;;16.20;99.90;;;;;;5045766;28;20429;-58
2021/07/18 02:55:19;;;;;;;16.70;11.60;;;16.20;99.90;;;;;;5025456;28;20438;-58
2021/07/18 02:57:45;;;;;;;20.43;12.47;;;16.10;99.90;;;;;;5038909;28;20167;-57
2021/07/18 03:00:14;;;;;;;21.17;12.27;;;16.10;99.90;;;;;;5039396;28;20456;-57
2021/07/18 03:02:44;;;;;;;23.43;11.40;;;16.10;99.90;;;;;;5040238;28;20422;-57
2021/07/18 03:05:14;;;;;;;16.77;10.97;;;16.00;99.90;;;;;;5042109;28;20425;-57
2021/07/18 03:07:44;;;;;;;19.77;11.67;;;15.90;99.90;;;;;;5042042;28;20444;-57
2021/07/18 03:10:12;;;;;;;21.27;12.20;;;15.90;99.90;;;;;;5044509;28;20466;-58
2021/07/18 03:12:38;;;;;;;15.43;11.33;;;15.90;99.90;;;;;;5041125;28;22280;-58
2021/07/18 03:15:09;;;;;;;17.90;10.30;;;15.80;99.90;;;;;;5043183;28;20430;-56
2021/07/18 03:17:35;;;;;;;13.97;11.23;;;15.80;99.90;;;;;;5026147;28;20483;-57
2021/07/18 03:20:02;;;;;;;16.37;10.07;;;15.70;99.90;;;;;;5043156;28;20457;-57
2021/07/18 03:22:32;;;;;;;20.03;11.20;;;15.70;99.90;;;;;;5028409;28;20194;-58
2021/07/18 03:24:58;;;;;;;16.57;11.50;;;15.60;99.90;;;;;;5043410;28;20465;-58
2021/07/18 03:27:26;;;;;;;13.83;10.00;;;15.60;99.90;;;;;;5052499;28;20481;-57
2021/07/18 03:29:52;;;;;;;21.17;12.53;;;15.60;99.90;;;;;;5027731;28;20183;-58
2021/07/18 03:32:17;;;;;;;22.33;10.70;;;15.50;99.90;;;;;;5025658;28;20888;-57
2021/07/18 03:34:43;;;;;;;24.93;11.60;;;15.50;99.90;;;;;;5043421;28;20187;-57
2021/07/18 03:37:09;;;;;;;20.33;11.13;;;15.60;99.90;;;;;;5043531;28;20183;-57
2021/07/18 03:39:34;;;;;;;17.27;10.90;;;15.60;99.90;;;;;;5044242;28;20190;-58
2021/07/18 03:42:00;;;;;;;19.50;11.10;;;15.60;99.90;;;;;;5024487;28;20515;-57
2021/07/18 03:44:26;;;;;;;19.00;11.70;;;15.60;99.90;;;;;;5025491;28;20226;-58
2021/07/18 03:46:52;;;;;;;14.67;10.43;;;15.70;99.90;;;;;;5036666;28;20212;-57
2021/07/18 03:49:17;;;;;;;18.40;11.07;;;15.70;99.90;;;;;;5042426;28;20187;-56
2021/07/18 03:51:43;;;;;;;22.03;11.23;;;15.70;99.90;;;;;;5043962;28;20254;-57
2021/07/18 03:54:09;;;;;;;15.90;10.97;;;15.70;99.90;;;;;;5041112;28;20198;-57
2021/07/18 03:56:35;;;;;;;14.67;10.20;;;15.70;99.90;;;;;;5020420;28;20191;-57
2021/07/18 03:59:01;;;;;;;14.77;10.03;;;15.70;99.90;;;;;;5043306;28;20444;-58
2021/07/18 04:01:26;;;;;;;15.60;10.70;;;15.60;99.90;;;;;;5023601;28;20282;-57
2021/07/18 04:03:52;;;;;;;17.73;9.70;;;15.60;99.90;;;;;;5042396;28;20189;-57
2021/07/18 04:06:19;;;;;;;14.33;9.17;;;15.60;99.90;;;;;;5043760;28;20641;-57
2021/07/18 04:08:44;;;;;;;13.90;9.40;;;15.60;99.90;;;;;;5041203;28;20180;-58
2021/07/18 04:11:11;;;;;;;19.93;8.90;;;15.70;99.90;;;;;;5023197;28;20455;-57
2021/07/18 04:13:37;;;;;;;21.90;9.27;;;15.70;99.90;;;;;;5025155;28;20187;-57
2021/07/18 04:16:05;;;;;;;17.10;9.80;;;15.70;99.90;;;;;;5041683;28;20486;-57
2021/07/18 04:18:31;;;;;;;17.40;10.17;;;15.70;99.90;;;;;;5025550;28;20442;-56
2021/07/18 04:20:56;;;;;;;14.90;8.43;;;15.70;99.90;;;;;;5041058;28;20580;-57
2021/07/18 04:23:22;;;;;;;18.67;10.43;;;15.70;99.90;;;;;;5042220;28;20520;-58
2021/07/18 04:25:48;;;;;;;17.30;9.13;;;15.70;99.90;;;;;;5043066;28;20277;-58
2021/07/18 04:28:13;;;;;;;15.63;8.70;;;15.70;99.90;;;;;;5047198;28;20526;-56
2021/07/18 04:30:40;;;;;;;16.83;8.73;;;15.80;99.90;;;;;;5041248;28;20199;-57
2021/07/18 04:33:06;;;;;;;13.77;8.87;;;15.80;99.90;;;;;;5044437;28;20403;-57
2021/07/18 04:35:31;;;;;;;15.30;8.80;;;15.80;99.90;;;;;;5043205;28;20417;-56
2021/07/18 04:37:57;;;;;;;15.00;8.70;;;15.80;99.90;;;;;;5042674;28;20537;-57
2021/07/18 04:40:24;;;;;;;17.77;8.53;;;15.80;99.90;;;;;;5043538;28;20208;-57
2021/07/18 04:42:49;;;;;;;11.97;8.70;;;15.90;99.90;;;;;;5042171;28;20175;-58
2021/07/18 04:45:15;;;;;;;15.83;9.03;;;15.90;99.90;;;;;;5041664;28;20427;-57
2021/07/18 04:47:48;;;;;;;14.73;9.40;;;15.90;99.90;;;;;;5041748;28;20201;-58
2021/07/18 04:50:15;;;;;;;14.57;9.50;;;15.90;99.90;;;;;;5039625;28;20202;-57
2021/07/18 04:52:41;;;;;;;18.70;9.53;;;15.90;99.90;;;;;;5040590;28;20433;-58
2021/07/18 04:55:09;;;;;;;16.20;8.77;;;16.00;99.90;;;;;;5042251;28;20426;-58
2021/07/18 04:57:35;;;;;;;14.80;8.90;;;16.00;99.90;;;;;;5041001;28;20187;-58
2021/07/18 05:00:06;;;;;;;13.43;8.87;;;16.00;99.90;;;;;;5039944;28;20538;-58
2021/07/18 05:02:32;;;;;;;10.20;8.67;;;16.00;99.90;;;;;;5040706;28;20167;-59
2021/07/18 05:04:57;;;;;;;17.77;9.27;;;16.10;99.90;;;;;;5025604;28;20810;-57
2021/07/18 05:07:23;;;;;;;13.30;8.47;;;16.20;99.90;;;;;;5041920;28;20662;-57
2021/07/18 05:09:49;;;;;;;13.00;7.93;;;16.20;99.90;;;;;;5027081;28;20183;-57
2021/07/18 05:12:14;;;;;;;18.70;8.83;;;16.30;99.90;;;;;;5041270;28;20167;-58
2021/07/18 05:14:42;;;;;;;14.07;8.47;;;16.30;99.90;;;;;;5041601;28;20539;-60
2021/07/18 05:17:08;;;;;;;11.10;8.50;;;16.40;99.90;;;;;;5040466;28;20855;-57
2021/07/18 05:19:34;;;;;;;12.13;8.50;;;16.50;99.90;;;;;;5022041;28;20423;-58
2021/07/18 05:22:00;;;;;;;16.43;8.80;;;16.50;99.90;;;;;;5042611;28;20421;-57
2021/07/18 05:24:25;;;;;;;12.03;8.77;;;16.60;99.90;;;;;;5039730;28;20224;-57
2021/07/18 05:26:52;;;;;;;12.90;8.47;;;16.60;99.90;;;;;;5040080;28;20195;-57
2021/07/18 05:29:18;;;;;;;13.03;9.20;;;16.60;99.90;;;;;;5040563;28;20175;-56
2021/07/18 05:31:45;;;;;;;11.33;9.33;;;16.70;99.90;;;;;;5040085;28;20425;-58
2021/07/18 05:34:11;;;;;;;15.90;9.17;;;16.80;99.90;;;;;;5041042;28;20587;-58
2021/07/18 05:36:36;;;;;;;13.40;8.70;;;16.80;99.90;;;;;;5040104;28;20548;-58
2021/07/18 05:39:04;;;;;;;13.97;9.43;;;16.90;99.90;;;;;;5041207;28;20167;-58
2021/07/18 05:41:30;;;;;;;17.40;8.30;;;16.90;99.90;;;;;;5040091;28;20215;-58
2021/07/18 05:43:55;;;;;;;18.30;8.33;;;17.00;99.90;;;;;;5040773;28;20425;-58
2021/07/18 05:46:21;;;;;;;15.57;8.40;;;17.10;99.90;;;;;;5040336;28;20647;-58
2021/07/18 05:48:47;;;;;;;11.83;8.07;;;17.20;99.90;;;;;;5039091;28;20169;-58
2021/07/18 05:51:12;;;;;;;9.73;7.60;;;17.20;99.90;;;;;;5039709;28;20194;-57
2021/07/18 05:53:38;;;;;;;12.40;8.03;;;17.30;99.90;;;;;;5040977;28;20171;-57
2021/07/18 05:56:04;;;;;;;10.50;7.30;;;17.30;99.90;;;;;;5040851;28;20183;-58
2021/07/18 05:58:29;;;;;;;8.80;7.17;;;17.40;99.90;;;;;;5039466;28;20509;-58
2021/07/18 06:00:55;;;;;;;11.20;7.30;;;17.40;99.90;;;;;;5040387;28;20500;-57
2021/07/18 06:03:21;;;;;;;17.43;8.60;;;17.50;99.90;;;;;;5024060;28;20258;-57
2021/07/18 06:05:46;;;;;;;11.60;6.63;;;17.60;99.90;;;;;;5040055;28;20341;-57
2021/07/18 06:08:13;;;;;;;10.53;6.57;;;17.60;99.90;;;;;;5039412;28;20159;-58
2021/07/18 06:10:38;;;;;;;13.93;7.40;;;17.70;99.90;;;;;;5039047;28;20289;-58
2021/07/18 06:13:04;;;;;;;11.10;6.97;;;17.80;99.90;;;;;;5040272;28;21109;-58
2021/07/18 06:15:30;;;;;;;16.03;7.10;;;17.90;99.90;;;;;;5039590;28;20167;-57
2021/07/18 06:17:55;;;;;;;8.30;6.30;;;17.90;99.90;;;;;;5039863;28;21078;-58
2021/07/18 06:20:21;;;;;;;10.83;6.13;;;18.00;99.90;;;;;;5039281;28;20193;-58
2021/07/18 06:22:47;;;;;;;15.50;7.00;;;18.00;99.90;;;;;;5040549;28;20187;-56
2021/07/18 06:25:14;;;;;;;14.67;6.17;;;18.10;99.90;;;;;;5039311;28;20801;-58
2021/07/18 06:27:41;;;;;;;9.20;6.33;;;18.10;99.90;;;;;;5039477;28;20489;-58
2021/07/18 06:30:08;;;;;;;8.50;6.70;;;18.10;99.90;;;;;;5039318;28;20467;-60
2021/07/18 06:32:34;;;;;;;9.60;6.40;;;18.20;99.90;;;;;;5019604;28;20428;-57
2021/07/18 06:35:00;;;;;;;10.40;6.63;;;18.30;99.90;;;;;;5041352;28;20866;-57
2021/07/18 06:37:26;;;;;;;9.60;6.40;;;18.30;99.90;;;;;;5015665;28;20193;-58
2021/07/18 06:39:51;;;;;;;11.00;5.97;;;18.40;99.90;;;;;;5031774;28;20223;-56
2021/07/18 06:42:19;;;;;;;10.20;5.50;;;18.50;99.90;;;;;;5029469;28;21216;-57
2021/07/18 06:44:44;;;;;;;11.17;5.90;;;18.50;99.90;;;;;;5015330;28;20532;-56
2021/07/18 06:47:10;;;;;;;11.53;5.97;;;18.60;99.90;;;;;;5036780;28;20448;-57
2021/07/18 06:49:36;;;;;;;11.40;6.37;;;18.70;99.90;;;;;;5003202;28;20576;-57
2021/07/18 06:52:02;;;;;;;10.10;5.83;;;18.80;99.90;;;;;;5034548;28;20259;-57
2021/07/18 06:54:27;;;;;;;6.20;5.40;;;18.90;99.90;;;;;;5033030;28;20171;-58
2021/07/18 06:56:54;;;;;;;8.23;5.70;;;19.00;99.90;;;;;;5029814;28;20456;-56
2021/07/18 06:59:20;;;;;;;11.83;5.80;;;19.00;99.90;;;;;;5035313;28;20197;-57
2021/07/18 07:01:46;;;;;;;13.10;5.30;;;19.00;99.90;;;;;;5035839;28;20429;-57
2021/07/18 07:04:11;;;;;;;10.03;5.80;;;19.10;99.90;;;;;;5034619;28;20187;-56
2021/07/18 07:06:37;;;;;;;8.03;5.27;;;19.10;99.90;;;;;;5034255;28;20198;-59
2021/07/18 07:09:04;;;;;;;10.80;4.87;;;19.20;99.90;;;;;;5035530;28;20179;-56
2021/07/18 07:11:30;;;;;;;14.03;5.17;;;19.30;99.90;;;;;;5036617;28;20294;-58
2021/07/18 07:13:56;;;;;;;8.03;5.47;;;19.40;99.90;;;;;;5034700;28;20509;-57
2021/07/18 07:16:22;;;;;;;23.33;5.77;;;19.50;99.90;;;;;;5035780;28;20806;-57
2021/07/18 07:18:48;;;;;;;12.17;5.43;;;19.60;99.90;;;;;;5029638;28;20978;-54
2021/07/18 07:21:14;;;;;;;8.53;5.10;;;19.60;99.90;;;;;;5035824;28;20481;-54
2021/07/18 07:23:41;;;;;;;9.40;4.77;;;19.70;99.90;;;;;;5039635;28;20175;-57
2021/07/18 07:26:07;;;;;;;13.57;4.87;;;19.70;99.90;;;;;;5044449;28;20230;-56
2021/07/18 07:28:33;;;;;;;10.97;5.13;;;19.70;99.90;;;;;;5036840;28;20426;-58
2021/07/18 07:31:00;;;;;;;8.67;4.97;;;19.80;99.90;;;;;;5018369;28;20450;-56
2021/07/18 07:33:27;;;;;;;6.13;4.50;;;19.90;99.90;;;;;;5037587;28;20521;-56
2021/07/18 07:35:52;;;;;;;14.10;4.83;;;19.90;99.90;;;;;;5018593;28;20473;-54
2021/07/18 07:38:18;;;;;;;11.67;5.30;;;20.00;99.90;;;;;;5036387;28;20961;-55
2021/07/18 07:40:45;;;;;;;8.40;4.90;;;20.00;99.90;;;;;;5036594;28;20211;-56
2021/07/18 07:43:11;;;;;;;9.73;5.30;;;20.00;99.90;;;;;;5037690;28;20467;-55
2021/07/18 07:45:37;;;;;;;6.70;4.53;;;20.10;99.90;;;;;;5034930;28;20434;-56
2021/07/18 07:48:03;;;;;;;7.63;4.70;;;20.10;99.90;;;;;;5037936;28;21069;-56
2021/07/18 07:50:30;;;;;;;18.20;5.30;;;20.20;99.90;;;;;;5039573;28;20188;-55
2021/07/18 07:52:55;;;;;;;8.13;4.90;;;20.20;99.90;;;;;;5040208;28;20434;-56
2021/07/18 07:55:21;;;;;;;14.73;5.00;;;20.30;99.90;;;;;;5039636;28;20426;-57
2021/07/18 07:57:47;;;;;;;12.57;5.03;;;20.40;99.90;;;;;;5023665;28;20210;-55
2021/07/18 08:00:14;;;;;;;11.90;4.40;;;20.40;99.90;;;;;;5041728;28;20298;-56
2021/07/18 08:02:41;;;;;;;7.43;4.47;;;20.50;99.90;;;;;;5040923;28;20175;-59
2021/07/18 08:05:08;;;;;;;8.57;4.43;;;20.60;99.90;;;;;;5021931;28;20520;-57
2021/07/18 08:07:34;;;;;;;6.60;4.33;;;20.70;99.90;;;;;;5040316;28;20663;-55
2021/07/18 08:10:00;;;;;;;9.63;4.77;;;20.80;99.90;;;;;;5038404;28;21115;-56
2021/07/18 08:12:26;;;;;;;7.30;4.87;;;20.90;99.90;;;;;;5040250;28;20183;-55
2021/07/18 08:14:51;;;;;;;12.13;5.13;;;21.00;99.90;;;;;;5040803;28;20394;-55
2021/07/18 08:17:18;;;;;;;10.83;4.70;;;21.00;99.90;;;;;;5039771;28;20183;-56
2021/07/18 08:19:43;;;;;;;10.90;4.70;;;21.10;99.90;;;;;;5023380;28;20205;-57
2021/07/18 08:22:09;;;;;;;8.10;4.90;;;21.10;99.90;;;;;;5041170;28;20433;-56
2021/07/18 08:24:36;;;;;;;13.90;4.90;;;21.10;99.90;;;;;;5039902;28;20178;-55
2021/07/18 08:27:02;;;;;;;13.93;3.90;;;21.10;99.90;;;;;;5040589;28;20454;-57
2021/07/18 08:29:28;;;;;;;6.60;4.87;;;21.20;99.90;;;;;;5039106;28;20440;-56
2021/07/18 08:31:58;;;;;;;7.23;4.23;;;21.30;99.90;;;;;;5035584;28;20430;-56
2021/07/18 08:34:25;;;;;;;11.73;4.20;;;21.40;99.90;;;;;;5038201;28;20576;-54
2021/07/18 08:36:51;;;;;;;7.90;4.60;;;21.50;99.90;;;;;;5038836;28;20433;-56
2021/07/18 08:39:17;;;;;;;11.83;4.73;;;21.60;99.90;;;;;;5039439;28;20457;-56
2021/07/18 08:41:44;;;;;;;13.87;5.57;;;21.70;99.90;;;;;;5036462;28;20442;-57
2021/07/18 08:44:14;;;;;;;10.10;4.30;;;21.70;99.90;;;;;;5041549;28;20187;-57
2021/07/18 08:46:41;;;;;;;13.87;4.77;;;21.80;99.90;;;;;;5037490;28;20457;-58
2021/07/18 08:49:10;;;;;;;7.63;4.60;;;21.90;99.90;;;;;;5034290;28;20442;-55
2021/07/18 08:51:37;;;;;;;10.23;4.50;;;22.00;99.90;;;;;;5039271;28;20458;-58
2021/07/18 08:54:04;;;;;;;8.70;4.17;;;22.10;99.90;;;;;;5036087;28;20433;-56
2021/07/18 08:56:32;;;;;;;7.20;3.77;;;22.20;99.90;;;;;;5037590;28;20438;-56
2021/07/18 08:59:07;;;;;;;9.27;4.20;;;22.30;99.90;;;;;;5035801;28;20466;-57
2021/07/18 09:01:34;;;;;;;7.83;4.27;;;22.40;99.90;;;;;;5030088;28;20445;-56
2021/07/18 09:04:00;;;;;;;14.50;4.53;;;22.40;99.20;;;;;;5035027;28;20486;-57
2021/07/18 09:06:50;;;;;;;6.93;4.17;;;22.40;99.30;;;;;;5047868;28;20466;-60
2021/07/18 09:09:18;;;;;;;8.20;4.40;;;22.50;99.50;;;;;;5035859;28;20425;-57
2021/07/18 09:11:57;;;;;;;7.60;3.87;;;22.50;99.30;;;;;;5048038;28;20457;-59
2021/07/18 09:14:23;;;;;;;6.80;4.33;;;22.40;98.90;;;;;;5041721;28;21002;-58
2021/07/18 09:16:51;;;;;;;10.17;4.73;;;22.50;99.90;;;;;;5044957;28;20469;-58
2021/07/18 09:19:29;;;;;;;13.63;4.00;;;22.70;99.70;;;;;;5037237;28;20436;-56
2021/07/18 09:21:57;;;;;;;7.53;4.07;;;22.60;98.40;;;;;;5034515;28;20437;-60
2021/07/18 09:24:46;;;;;;;8.27;4.17;;;22.60;98.60;;;;;;5037599;28;20445;-59
2021/07/18 09:27:18;;;;;;;13.43;4.57;;;22.60;98.70;;;;;;5022111;28;20488;-58
2021/07/18 09:29:52;;;;;;;7.30;3.93;;;22.60;97.40;;;;;;5042439;28;20442;-56
2021/07/18 09:32:25;;;;;;;8.70;4.33;;;22.50;97.20;;;;;;5041262;28;20460;-55
2021/07/18 09:35:06;;;;;;;10.20;4.10;;;22.50;97.20;;;;;;5048498;28;20440;-55
2021/07/18 09:37:34;;;;;;;6.13;3.90;;;22.50;97.60;;;;;;5038970;28;20456;-55
2021/07/18 09:40:04;;;;;;;9.60;3.80;;;22.50;97.90;;;;;;5050509;28;20554;-57
2021/07/18 09:42:36;;;;;;;6.50;3.80;;;22.70;99.10;;;;;;5039755;28;21406;-55
2021/07/18 09:45:07;;;;;;;6.20;3.80;;;22.90;98.20;;;;;;5043120;28;20477;-55
2021/07/18 09:47:34;;;;;;;6.93;3.93;;;23.00;96.80;;;;;;5039089;28;20462;-54
2021/07/18 09:49:59;;;;;;;4.40;3.30;;;23.20;97.00;;;;;;5025631;28;20543;-54
2021/07/18 09:52:27;;;;;;;8.60;3.70;;;23.40;96.50;;;;;;5046906;28;20430;-56
2021/07/18 09:54:56;;;;;;;9.33;3.60;;;23.60;95.70;;;;;;5047668;28;20755;-54
2021/07/18 09:57:41;;;;;;;7.50;4.23;;;23.80;95.70;;;;;;5050605;28;20495;-54
2021/07/18 10:00:12;;;;;;;8.10;4.07;;;23.90;93.90;;;;;;5042803;28;20453;-55
2021/07/18 10:02:41;;;;;;;5.57;3.83;;;24.00;93.10;;;;;;5043270;28;20523;-57
2021/07/18 10:05:14;;;;;;;4.80;3.57;;;23.90;91.90;;;;;;5025246;28;20449;-55
2021/07/18 10:07:42;;;;;;;8.60;3.60;;;23.80;91.60;;;;;;5036780;28;20632;-54
2021/07/18 10:10:12;;;;;;;7.13;3.73;;;23.70;91.00;;;;;;5040463;28;20465;-54
2021/07/18 10:12:37;;;;;;;10.17;3.63;;;23.60;90.30;;;;;;5052422;28;20930;-54
2021/07/18 10:15:04;;;;;;;7.73;3.33;;;23.60;93.00;;;;;;5039451;28;20499;-57
2021/07/18 10:17:30;;;;;;;6.67;3.57;;;23.70;92.10;;;;;;5020082;28;20196;-55
2021/07/18 10:19:56;;;;;;;8.50;3.63;;;23.80;89.40;;;;;;5030556;28;20465;-55
2021/07/18 10:22:24;;;;;;;6.30;3.57;;;23.70;87.70;;;;;;5025597;28;20437;-58
2021/07/18 10:24:55;;;;;;;9.03;3.50;;;23.60;87.30;;;;;;5020668;28;20453;-55
2021/07/18 10:27:21;;;;;;;3.43;2.87;;;23.60;88.50;;;;;;5026035;28;20480;-54
2021/07/18 10:29:52;;;;;;;6.50;3.43;;;23.70;90.30;;;;;;5035034;28;20497;-56
2021/07/18 10:32:18;;;;;;;5.27;3.17;;;23.90;85.30;;;;;;5050047;28;20430;-58
2021/07/18 10:34:45;;;;;;;6.77;3.90;;;24.10;87.10;;;;;;5042786;28;20425;-55
2021/07/18 10:37:16;;;;;;;9.27;4.37;;;24.30;85.80;;;;;;5026910;28;20993;-55
2021/07/18 10:39:43;;;;;;;5.37;3.67;;;24.50;79.20;;;;;;5019327;28;20450;-56
2021/07/18 10:42:35;;;;;;;6.57;4.03;;;24.50;82.80;;;;;;5025384;28;20445;-58
2021/07/18 10:45:32;;;;;;;6.57;3.60;;;24.70;78.80;;;;;;5023606;28;20437;-54
2021/07/18 10:47:57;;;;;;;8.93;3.57;;;24.60;79.80;;;;;;5034196;28;20512;-56
2021/07/18 10:50:44;;;;;;;10.07;3.07;;;24.60;82.20;;;;;;5038271;28;21144;-56
2021/07/18 10:53:18;;;;;;;7.47;3.80;;;24.70;79.60;;;;;;5044621;28;20262;-57
2021/07/18 10:55:44;;;;;;;6.60;4.00;;;24.50;76.10;;;;;;5042445;28;20441;-57
2021/07/18 10:58:35;;;;;;;8.17;3.53;;;24.30;76.30;;;;;;5041852;28;20472;-58
2021/07/18 11:01:01;;;;;;;7.93;3.57;;;24.10;79.50;;;;;;5026934;28;20218;-56
2021/07/18 11:03:33;;;;;;;5.37;3.30;;;23.80;80.90;;;;;;5045174;28;20460;-57
2021/07/18 11:06:31;;;;;;;10.30;3.43;;;23.90;85.20;;;;;;5054005;28;20203;-58
2021/07/18 11:09:18;;;;;;;4.97;2.70;;;24.10;84.50;;;;;;5026743;28;21036;-58
2021/07/18 11:11:57;;;;;;;6.67;3.57;;;24.40;83.40;;;;;;5026949;28;20485;-59
2021/07/18 11:14:34;;;;;;;7.07;3.67;;;24.70;80.10;;;;;;5056641;28;20421;-58
2021/07/18 11:17:03;;;;;;;5.77;3.17;;;24.80;80.90;;;;;;5025926;28;20524;-61
2021/07/18 11:19:39;;;;;;;6.63;3.57;;;24.90;78.90;;;;;;5037573;28;20833;-58
2021/07/18 11:22:07;;;;;;;5.77;3.40;;;25.00;75.80;;;;;;5043508;28;20484;-55
2021/07/18 11:25:05;;;;;;;5.13;3.33;;;24.90;74.20;;;;;;5038046;28;20495;-55
2021/07/18 11:27:36;;;;;;;5.23;3.00;;;24.90;76.70;;;;;;5013326;28;20488;-57
2021/07/18 11:30:24;;;;;;;7.30;3.17;;;25.10;82.60;;;;;;5045667;28;20453;-58
2021/07/18 11:32:53;;;;;;;9.00;3.50;;;25.10;74.30;;;;;;5039682;28;20594;-58
2021/07/18 11:35:22;;;;;;;9.10;3.27;;;24.90;71.70;;;;;;5028848;28;20560;-54
2021/07/18 11:37:48;;;;;;;6.80;3.20;;;24.70;73.60;;;;;;5044337;28;20463;-57
2021/07/18 11:40:18;;;;;;;7.67;3.40;;;24.70;74.90;;;;;;5044088;28;20472;-56
2021/07/18 11:42:44;;;;;;;9.30;3.37;;;24.80;77.60;;;;;;5041749;28;20441;-57
2021/07/18 11:45:13;;;;;;;8.70;3.20;;;25.10;81.10;;;;;;5045472;28;20450;-57
2021/07/18 11:47:40;;;;;;;6.30;3.20;;;25.20;70.70;;;;;;5049243;28;20230;-57
2021/07/18 11:50:09;;;;;;;7.03;3.20;;;25.40;68.00;;;;;;5024719;28;20966;-55
2021/07/18 11:52:39;;;;;;;9.13;3.00;;;25.60;69.20;;;;;;5050086;28;20520;-58
2021/07/18 11:55:09;;;;;;;4.67;2.93;;;25.80;68.70;;;;;;5036389;28;20556;-60
2021/07/18 11:57:41;;;;;;;5.73;2.83;;;26.10;68.60;;;;;;5043966;28;20477;-59
2021/07/18 12:00:07;;;;;;;5.23;2.57;;;26.30;66.30;;;;;;5051516;28;20473;-57
2021/07/18 12:02:38;;;;;;;11.83;2.90;;;26.50;65.40;;;;;;5060005;28;20437;-58
2021/07/18 12:05:08;;;;;;;8.93;2.97;;;26.50;63.00;;;;;;5041976;28;20516;-57
2021/07/18 12:07:34;;;;;;;3.77;2.90;;;26.20;61.30;;;;;;5047114;28;20489;-56
2021/07/18 12:10:02;;;;;;;5.37;2.90;;;26.10;63.30;;;;;;5039118;28;20814;-58
2021/07/18 12:12:28;;;;;;;3.37;2.50;;;26.30;62.70;;;;;;5042374;28;20421;-60
2021/07/18 12:14:58;;;;;;;3.70;2.60;;;26.40;62.10;;;;;;5047696;28;20532;-59
2021/07/18 12:17:23;;;;;;;5.27;2.73;;;26.50;59.90;;;;;;5042270;28;20224;-57
2021/07/18 12:19:54;;;;;;;4.50;2.80;;;26.60;60.10;;;;;;5039881;28;20448;-61
2021/07/18 12:22:26;;;;;;;3.70;2.73;;;26.80;59.70;;;;;;5034817;28;20186;-60
2021/07/18 12:24:55;;;;;;;6.70;2.87;;;26.90;58.00;;;;;;5036422;28;20437;-58
2021/07/18 12:27:22;;;;;;;4.67;2.43;;;27.10;57.40;;;;;;5044523;28;20480;-59
2021/07/18 12:29:52;;;;;;;4.47;2.97;;;27.20;56.50;;;;;;5047684;28;20461;-59
2021/07/18 12:32:25;;;;;;;6.57;2.47;;;27.30;56.00;;;;;;5033942;28;20421;-59
2021/07/18 12:34:53;;;;;;;9.17;2.63;;;27.50;57.00;;;;;;5022048;28;20448;-58
2021/07/18 12:37:27;;;;;;;6.57;2.23;;;27.40;53.20;;;;;;5042808;28;20548;-59
2021/07/18 12:40:04;;;;;;;12.43;2.93;;;27.30;52.90;;;;;;5036069;28;21056;-61
2021/07/18 12:42:44;;;;;;;3.30;2.40;;;27.30;54.10;;;;;;5039777;28;20440;-58